sensor_id;sensor_type;location;lat;lon;timestamp;P1;durP1;ratioP1;P2;durP2;ratioP2
68315;SDS011;55508;54.368;18.406;2023-05-19T00:01:27;11.43;;;6.80;;
68315;SDS011;55508;54.368;18.406;2023-05-19T00:03:55;12.43;;;6.35;;
68315;SDS011;55508;54.368;18.406;2023-05-19T00:06:28;8.60;;;5.38;;
68315;SDS011;55508;54.368;18.406;2023-05-19T00:08:58;7.40;;;6.10;;
68315;SDS011;55508;54.368;18.406;2023-05-19T00:11:28;6.97;;;5.50;;
68315;SDS011;55508;54.368;18.406;2023-05-19T00:13:56;7.40;;;6.20;;
68315;SDS011;55508;54.368;18.406;2023-05-19T00:16:26;9.45;;;6.18;;
68315;SDS011;55508;54.368;18.406;2023-05-19T00:18:54;6.38;;;5.55;;
68315;SDS011;55508;54.368;18.406;2023-05-19T00:21:22;7.57;;;6.20;;
68315;SDS011;55508;54.368;18.406;2023-05-19T00:23:49;8.63;;;6.20;;
68315;SDS011;55508;54.368;18.406;2023-05-19T00:26:16;9.85;;;6.75;;
68315;SDS011;55508;54.368;18.406;2023-05-19T00:28:52;10.68;;;7.05;;
68315;SDS011;55508;54.368;18.406;2023-05-19T00:31:19;10.60;;;7.32;;
68315;SDS011;55508;54.368;18.406;2023-05-19T00:33:46;11.40;;;6.63;;
68315;SDS011;55508;54.368;18.406;2023-05-19T00:36:13;8.43;;;6.55;;
68315;SDS011;55508;54.368;18.406;2023-05-19T00:38:40;7.88;;;5.60;;
68315;SDS011;55508;54.368;18.406;2023-05-19T00:41:07;10.15;;;5.85;;
68315;SDS011;55508;54.368;18.406;2023-05-19T00:43:34;7.20;;;5.75;;
68315;SDS011;55508;54.368;18.406;2023-05-19T00:46:01;7.45;;;5.82;;
68315;SDS011;55508;54.368;18.406;2023-05-19T00:48:28;12.20;;;6.07;;
68315;SDS011;55508;54.368;18.406;2023-05-19T00:50:56;10.13;;;5.07;;
68315;SDS011;55508;54.368;18.406;2023-05-19T00:53:27;6.55;;;4.97;;
68315;SDS011;55508;54.368;18.406;2023-05-19T00:55:55;7.55;;;4.93;;
68315;SDS011;55508;54.368;18.406;2023-05-19T00:58:23;7.90;;;5.25;;
68315;SDS011;55508;54.368;18.406;2023-05-19T01:00:58;8.40;;;5.72;;
68315;SDS011;55508;54.368;18.406;2023-05-19T01:03:30;8.32;;;5.82;;
68315;SDS011;55508;54.368;18.406;2023-05-19T01:05:58;7.82;;;6.30;;
68315;SDS011;55508;54.368;18.406;2023-05-19T01:08:31;7.85;;;6.25;;
68315;SDS011;55508;54.368;18.406;2023-05-19T01:10:58;9.23;;;6.80;;
68315;SDS011;55508;54.368;18.406;2023-05-19T01:13:26;6.72;;;5.85;;
68315;SDS011;55508;54.368;18.406;2023-05-19T01:16:06;12.95;;;6.15;;
68315;SDS011;55508;54.368;18.406;2023-05-19T01:19:00;10.43;;;6.07;;
68315;SDS011;55508;54.368;18.406;2023-05-19T01:30:57;11.23;;;6.95;;
68315;SDS011;55508;54.368;18.406;2023-05-19T01:33:25;10.43;;;6.50;;
68315;SDS011;55508;54.368;18.406;2023-05-19T01:35:54;8.05;;;5.68;;
68315;SDS011;55508;54.368;18.406;2023-05-19T01:38:22;8.15;;;6.38;;
68315;SDS011;55508;54.368;18.406;2023-05-19T01:40:50;6.55;;;5.82;;
68315;SDS011;55508;54.368;18.406;2023-05-19T01:43:19;9.10;;;5.65;;
68315;SDS011;55508;54.368;18.406;2023-05-19T01:45:47;8.95;;;6.50;;
68315;SDS011;55508;54.368;18.406;2023-05-19T01:48:14;8.52;;;5.88;;
68315;SDS011;55508;54.368;18.406;2023-05-19T01:50:43;9.32;;;6.30;;
68315;SDS011;55508;54.368;18.406;2023-05-19T01:53:11;6.75;;;6.07;;
68315;SDS011;55508;54.368;18.406;2023-05-19T01:55:45;8.27;;;6.03;;
68315;SDS011;55508;54.368;18.406;2023-05-19T01:58:31;6.43;;;5.82;;
68315;SDS011;55508;54.368;18.406;2023-05-19T02:01:15;8.18;;;5.85;;
68315;SDS011;55508;54.368;18.406;2023-05-19T02:07:00;8.88;;;6.13;;
68315;SDS011;55508;54.368;18.406;2023-05-19T02:12:27;9.65;;;5.93;;
68315;SDS011;55508;54.368;18.406;2023-05-19T02:15:03;8.65;;;5.93;;
68315;SDS011;55508;54.368;18.406;2023-05-19T02:17:33;9.25;;;6.22;;
68315;SDS011;55508;54.368;18.406;2023-05-19T02:20:02;8.60;;;6.15;;
68315;SDS011;55508;54.368;18.406;2023-05-19T02:22:30;8.57;;;6.30;;
68315;SDS011;55508;54.368;18.406;2023-05-19T02:24:57;8.98;;;5.82;;
68315;SDS011;55508;54.368;18.406;2023-05-19T02:27:24;7.40;;;5.57;;
68315;SDS011;55508;54.368;18.406;2023-05-19T02:29:51;10.75;;;6.72;;
68315;SDS011;55508;54.368;18.406;2023-05-19T02:32:19;10.73;;;6.78;;
68315;SDS011;55508;54.368;18.406;2023-05-19T02:34:47;8.45;;;5.78;;
68315;SDS011;55508;54.368;18.406;2023-05-19T02:37:14;6.18;;;5.15;;
68315;SDS011;55508;54.368;18.406;2023-05-19T02:39:41;5.25;;;4.72;;
68315;SDS011;55508;54.368;18.406;2023-05-19T02:42:09;5.95;;;4.43;;
68315;SDS011;55508;54.368;18.406;2023-05-19T02:44:37;4.45;;;3.75;;
68315;SDS011;55508;54.368;18.406;2023-05-19T02:47:04;6.55;;;3.63;;
68315;SDS011;55508;54.368;18.406;2023-05-19T02:49:31;5.90;;;4.35;;
68315;SDS011;55508;54.368;18.406;2023-05-19T02:52:01;4.15;;;3.67;;
68315;SDS011;55508;54.368;18.406;2023-05-19T02:54:29;5.85;;;4.40;;
68315;SDS011;55508;54.368;18.406;2023-05-19T02:56:57;5.80;;;4.15;;
68315;SDS011;55508;54.368;18.406;2023-05-19T02:59:24;7.30;;;4.00;;
68315;SDS011;55508;54.368;18.406;2023-05-19T03:01:53;4.88;;;2.78;;
68315;SDS011;55508;54.368;18.406;2023-05-19T03:04:21;3.45;;;3.05;;
68315;SDS011;55508;54.368;18.406;2023-05-19T03:06:48;5.00;;;3.83;;
68315;SDS011;55508;54.368;18.406;2023-05-19T03:09:15;5.15;;;3.67;;
68315;SDS011;55508;54.368;18.406;2023-05-19T03:11:42;7.10;;;4.20;;
68315;SDS011;55508;54.368;18.406;2023-05-19T03:14:09;4.13;;;3.72;;
68315;SDS011;55508;54.368;18.406;2023-05-19T03:16:37;8.57;;;4.90;;
68315;SDS011;55508;54.368;18.406;2023-05-19T03:19:07;3.83;;;3.53;;
68315;SDS011;55508;54.368;18.406;2023-05-19T03:21:34;3.78;;;3.47;;
68315;SDS011;55508;54.368;18.406;2023-05-19T03:24:02;4.20;;;3.88;;
68315;SDS011;55508;54.368;18.406;2023-05-19T03:26:29;7.45;;;4.20;;
68315;SDS011;55508;54.368;18.406;2023-05-19T03:28:56;6.28;;;4.78;;
68315;SDS011;55508;54.368;18.406;2023-05-19T03:31:25;5.90;;;4.28;;
68315;SDS011;55508;54.368;18.406;2023-05-19T03:33:52;4.00;;;3.25;;
68315;SDS011;55508;54.368;18.406;2023-05-19T03:36:20;4.03;;;3.63;;
68315;SDS011;55508;54.368;18.406;2023-05-19T03:38:48;5.75;;;4.70;;
68315;SDS011;55508;54.368;18.406;2023-05-19T03:41:15;4.38;;;3.97;;
68315;SDS011;55508;54.368;18.406;2023-05-19T03:43:42;7.28;;;4.40;;
68315;SDS011;55508;54.368;18.406;2023-05-19T03:46:09;2.90;;;2.30;;
68315;SDS011;55508;54.368;18.406;2023-05-19T03:48:55;6.03;;;4.00;;
68315;SDS011;55508;54.368;18.406;2023-05-19T03:51:42;6.35;;;3.85;;
68315;SDS011;55508;54.368;18.406;2023-05-19T03:54:25;6.70;;;3.65;;
68315;SDS011;55508;54.368;18.406;2023-05-19T03:56:52;4.03;;;2.97;;
68315;SDS011;55508;54.368;18.406;2023-05-19T03:59:19;4.45;;;3.78;;
68315;SDS011;55508;54.368;18.406;2023-05-19T04:01:46;3.95;;;2.97;;
68315;SDS011;55508;54.368;18.406;2023-05-19T04:04:14;6.75;;;3.20;;
68315;SDS011;55508;54.368;18.406;2023-05-19T04:06:41;4.18;;;3.13;;
68315;SDS011;55508;54.368;18.406;2023-05-19T04:39:39;3.58;;;2.25;;
68315;SDS011;55508;54.368;18.406;2023-05-19T04:42:12;5.35;;;1.98;;
68315;SDS011;55508;54.368;18.406;2023-05-19T04:44:39;4.60;;;1.77;;
68315;SDS011;55508;54.368;18.406;2023-05-19T04:47:07;3.70;;;2.03;;
68315;SDS011;55508;54.368;18.406;2023-05-19T04:49:34;6.00;;;2.35;;
68315;SDS011;55508;54.368;18.406;2023-05-19T15:23:52;4.45;;;2.92;;
68315;SDS011;55508;54.368;18.406;2023-05-19T15:26:22;3.97;;;2.72;;
68315;SDS011;55508;54.368;18.406;2023-05-19T15:28:50;4.68;;;3.30;;
68315;SDS011;55508;54.368;18.406;2023-05-19T15:31:17;2.90;;;2.60;;
68315;SDS011;55508;54.368;18.406;2023-05-19T15:33:45;3.50;;;2.60;;
68315;SDS011;55508;54.368;18.406;2023-05-19T15:36:12;7.75;;;4.78;;
68315;SDS011;55508;54.368;18.406;2023-05-19T15:38:41;5.43;;;3.78;;
68315;SDS011;55508;54.368;18.406;2023-05-19T15:41:08;6.75;;;4.03;;
68315;SDS011;55508;54.368;18.406;2023-05-19T15:43:36;5.32;;;3.38;;
68315;SDS011;55508;54.368;18.406;2023-05-19T15:46:03;2.90;;;2.60;;
68315;SDS011;55508;54.368;18.406;2023-05-19T15:48:30;2.88;;;2.60;;
68315;SDS011;55508;54.368;18.406;2023-05-19T15:50:58;3.15;;;2.60;;
68315;SDS011;55508;54.368;18.406;2023-05-19T15:53:26;4.00;;;3.55;;
68315;SDS011;55508;54.368;18.406;2023-05-19T15:55:53;5.20;;;4.50;;
68315;SDS011;55508;54.368;18.406;2023-05-19T15:58:22;5.20;;;4.80;;
68315;SDS011;55508;54.368;18.406;2023-05-19T16:00:49;16.08;;;10.38;;
68315;SDS011;55508;54.368;18.406;2023-05-19T16:03:16;7.18;;;5.60;;
68315;SDS011;55508;54.368;18.406;2023-05-19T16:05:43;11.13;;;9.20;;
68315;SDS011;55508;54.368;18.406;2023-05-19T16:08:10;5.47;;;4.95;;
68315;SDS011;55508;54.368;18.406;2023-05-19T16:10:37;8.13;;;4.35;;
68315;SDS011;55508;54.368;18.406;2023-05-19T16:13:04;3.88;;;3.25;;
68315;SDS011;55508;54.368;18.406;2023-05-19T16:15:31;7.40;;;5.80;;
68315;SDS011;55508;54.368;18.406;2023-05-19T16:17:58;13.18;;;8.68;;
68315;SDS011;55508;54.368;18.406;2023-05-19T16:20:25;7.05;;;6.43;;
68315;SDS011;55508;54.368;18.406;2023-05-19T16:22:55;4.63;;;4.22;;
68315;SDS011;55508;54.368;18.406;2023-05-19T16:25:22;4.22;;;3.78;;
68315;SDS011;55508;54.368;18.406;2023-05-19T16:27:49;3.65;;;3.10;;
68315;SDS011;55508;54.368;18.406;2023-05-19T16:30:16;4.32;;;3.67;;
68315;SDS011;55508;54.368;18.406;2023-05-19T16:32:43;4.78;;;4.03;;
68315;SDS011;55508;54.368;18.406;2023-05-19T16:35:10;2.88;;;2.38;;
68315;SDS011;55508;54.368;18.406;2023-05-19T16:37:37;4.15;;;2.50;;
68315;SDS011;55508;54.368;18.406;2023-05-19T16:40:05;2.42;;;2.00;;
68315;SDS011;55508;54.368;18.406;2023-05-19T16:42:32;4.32;;;2.20;;
68315;SDS011;55508;54.368;18.406;2023-05-19T16:44:59;2.15;;;1.95;;
68315;SDS011;55508;54.368;18.406;2023-05-19T16:47:27;2.17;;;1.90;;
68315;SDS011;55508;54.368;18.406;2023-05-19T16:49:54;3.97;;;1.75;;
68315;SDS011;55508;54.368;18.406;2023-05-19T16:52:21;6.07;;;2.60;;
68315;SDS011;55508;54.368;18.406;2023-05-19T16:54:48;4.20;;;2.47;;
68315;SDS011;55508;54.368;18.406;2023-05-19T16:57:15;4.18;;;2.55;;
68315;SDS011;55508;54.368;18.406;2023-05-19T16:59:42;3.33;;;2.97;;
68315;SDS011;55508;54.368;18.406;2023-05-19T17:02:09;3.58;;;3.13;;
68315;SDS011;55508;54.368;18.406;2023-05-19T17:04:35;3.42;;;3.08;;
68315;SDS011;55508;54.368;18.406;2023-05-19T17:07:02;3.72;;;3.25;;
68315;SDS011;55508;54.368;18.406;2023-05-19T17:09:29;3.47;;;3.20;;
68315;SDS011;55508;54.368;18.406;2023-05-19T17:11:56;5.85;;;3.60;;
68315;SDS011;55508;54.368;18.406;2023-05-19T17:14:23;3.40;;;2.97;;
68315;SDS011;55508;54.368;18.406;2023-05-19T17:16:50;4.20;;;3.90;;
68315;SDS011;55508;54.368;18.406;2023-05-19T17:19:17;3.75;;;3.45;;
68315;SDS011;55508;54.368;18.406;2023-05-19T17:21:44;4.50;;;3.30;;
68315;SDS011;55508;54.368;18.406;2023-05-19T17:24:11;6.88;;;3.47;;
68315;SDS011;55508;54.368;18.406;2023-05-19T17:26:38;4.88;;;4.18;;
68315;SDS011;55508;54.368;18.406;2023-05-19T17:29:05;5.20;;;4.22;;
68315;SDS011;55508;54.368;18.406;2023-05-19T17:31:32;4.95;;;4.53;;
68315;SDS011;55508;54.368;18.406;2023-05-19T17:33:59;6.35;;;5.75;;
68315;SDS011;55508;54.368;18.406;2023-05-19T17:36:26;8.02;;;7.28;;
68315;SDS011;55508;54.368;18.406;2023-05-19T17:39:00;3.25;;;2.95;;
68315;SDS011;55508;54.368;18.406;2023-05-19T17:41:27;4.53;;;3.10;;
68315;SDS011;55508;54.368;18.406;2023-05-19T17:43:58;6.45;;;5.20;;
68315;SDS011;55508;54.368;18.406;2023-05-19T17:46:27;8.23;;;6.95;;
68315;SDS011;55508;54.368;18.406;2023-05-19T17:49:00;4.75;;;3.97;;
68315;SDS011;55508;54.368;18.406;2023-05-19T17:51:27;5.43;;;3.85;;
68315;SDS011;55508;54.368;18.406;2023-05-19T17:53:58;6.15;;;5.65;;
68315;SDS011;55508;54.368;18.406;2023-05-19T17:56:26;8.07;;;7.43;;
68315;SDS011;55508;54.368;18.406;2023-05-19T17:58:58;4.97;;;4.47;;
68315;SDS011;55508;54.368;18.406;2023-05-19T18:01:25;9.57;;;4.25;;
68315;SDS011;55508;54.368;18.406;2023-05-19T18:03:52;4.57;;;4.28;;
68315;SDS011;55508;54.368;18.406;2023-05-19T18:06:20;4.75;;;4.40;;
68315;SDS011;55508;54.368;18.406;2023-05-19T18:08:47;6.97;;;5.13;;
68315;SDS011;55508;54.368;18.406;2023-05-19T18:11:18;5.28;;;4.75;;
68315;SDS011;55508;54.368;18.406;2023-05-19T18:13:46;4.85;;;4.43;;
68315;SDS011;55508;54.368;18.406;2023-05-19T18:16:13;5.30;;;4.38;;
68315;SDS011;55508;54.368;18.406;2023-05-19T18:18:43;5.25;;;4.75;;
68315;SDS011;55508;54.368;18.406;2023-05-19T18:21:16;5.75;;;4.90;;
68315;SDS011;55508;54.368;18.406;2023-05-19T18:23:44;5.85;;;5.30;;
68315;SDS011;55508;54.368;18.406;2023-05-19T18:26:12;6.53;;;5.15;;
68315;SDS011;55508;54.368;18.406;2023-05-19T18:28:39;5.55;;;5.15;;
68315;SDS011;55508;54.368;18.406;2023-05-19T18:31:07;5.72;;;5.22;;
68315;SDS011;55508;54.368;18.406;2023-05-19T18:33:34;7.05;;;5.20;;
68315;SDS011;55508;54.368;18.406;2023-05-19T18:36:01;7.18;;;5.00;;
68315;SDS011;55508;54.368;18.406;2023-05-19T18:38:28;5.78;;;4.47;;
68315;SDS011;55508;54.368;18.406;2023-05-19T18:40:55;5.28;;;4.78;;
68315;SDS011;55508;54.368;18.406;2023-05-19T19:05:01;6.68;;;4.57;;
68315;SDS011;55508;54.368;18.406;2023-05-19T19:07:30;5.05;;;4.55;;
68315;SDS011;55508;54.368;18.406;2023-05-19T19:10:00;7.70;;;4.90;;
68315;SDS011;55508;54.368;18.406;2023-05-19T19:12:35;5.55;;;4.93;;
68315;SDS011;55508;54.368;18.406;2023-05-19T19:15:26;6.47;;;5.60;;
68315;SDS011;55508;54.368;18.406;2023-05-19T19:17:53;6.60;;;5.10;;
68315;SDS011;55508;54.368;18.406;2023-05-19T19:20:20;5.90;;;5.20;;
68315;SDS011;55508;54.368;18.406;2023-05-19T19:22:48;6.13;;;5.35;;
68315;SDS011;55508;54.368;18.406;2023-05-19T19:25:15;6.55;;;5.55;;
68315;SDS011;55508;54.368;18.406;2023-05-19T19:27:42;9.10;;;5.85;;
68315;SDS011;55508;54.368;18.406;2023-05-19T19:30:09;6.43;;;5.60;;
68315;SDS011;55508;54.368;18.406;2023-05-19T19:32:36;7.65;;;5.53;;
68315;SDS011;55508;54.368;18.406;2023-05-19T19:35:04;6.35;;;5.60;;
68315;SDS011;55508;54.368;18.406;2023-05-19T19:37:31;9.15;;;6.15;;
68315;SDS011;55508;54.368;18.406;2023-05-19T19:39:59;7.22;;;6.30;;
68315;SDS011;55508;54.368;18.406;2023-05-19T19:42:26;8.38;;;6.13;;
68315;SDS011;55508;54.368;18.406;2023-05-19T19:44:53;6.90;;;5.63;;
68315;SDS011;55508;54.368;18.406;2023-05-19T19:47:21;7.15;;;5.68;;
68315;SDS011;55508;54.368;18.406;2023-05-19T19:49:48;6.20;;;5.60;;
68315;SDS011;55508;54.368;18.406;2023-05-19T19:52:15;5.95;;;5.45;;
68315;SDS011;55508;54.368;18.406;2023-05-19T19:54:42;6.00;;;5.50;;
68315;SDS011;55508;54.368;18.406;2023-05-19T19:57:10;6.47;;;4.88;;
68315;SDS011;55508;54.368;18.406;2023-05-19T19:59:37;5.10;;;4.60;;
68315;SDS011;55508;54.368;18.406;2023-05-19T20:02:04;6.05;;;4.95;;
68315;SDS011;55508;54.368;18.406;2023-05-19T20:04:31;6.97;;;4.47;;
68315;SDS011;55508;54.368;18.406;2023-05-19T20:06:58;5.57;;;5.07;;
68315;SDS011;55508;54.368;18.406;2023-05-19T20:09:35;7.95;;;5.55;;
68315;SDS011;55508;54.368;18.406;2023-05-19T20:12:02;5.63;;;5.05;;
68315;SDS011;55508;54.368;18.406;2023-05-19T20:14:29;5.03;;;4.53;;
68315;SDS011;55508;54.368;18.406;2023-05-19T20:28:22;7.70;;;5.00;;
68315;SDS011;55508;54.368;18.406;2023-05-19T20:30:50;6.10;;;5.50;;
68315;SDS011;55508;54.368;18.406;2023-05-19T20:33:17;7.78;;;4.50;;
68315;SDS011;55508;54.368;18.406;2023-05-19T20:35:45;7.15;;;5.20;;
68315;SDS011;55508;54.368;18.406;2023-05-19T20:40:46;7.00;;;5.10;;
68315;SDS011;55508;54.368;18.406;2023-05-19T20:43:13;7.93;;;5.72;;
68315;SDS011;55508;54.368;18.406;2023-05-19T20:45:44;8.18;;;5.30;;
68315;SDS011;55508;54.368;18.406;2023-05-19T20:48:12;6.00;;;5.40;;
68315;SDS011;55508;54.368;18.406;2023-05-19T20:50:42;9.20;;;4.77;;
68315;SDS011;55508;54.368;18.406;2023-05-19T20:53:10;6.18;;;5.35;;
68315;SDS011;55508;54.368;18.406;2023-05-19T20:55:37;6.00;;;5.25;;
68315;SDS011;55508;54.368;18.406;2023-05-19T20:58:05;6.75;;;5.25;;
68315;SDS011;55508;54.368;18.406;2023-05-19T21:01:05;5.13;;;4.70;;
68315;SDS011;55508;54.368;18.406;2023-05-19T21:03:33;8.48;;;4.88;;
68315;SDS011;55508;54.368;18.406;2023-05-19T21:06:00;4.85;;;4.45;;
68315;SDS011;55508;54.368;18.406;2023-05-19T21:08:28;5.05;;;4.55;;
68315;SDS011;55508;54.368;18.406;2023-05-19T21:10:55;4.80;;;4.40;;
68315;SDS011;55508;54.368;18.406;2023-05-19T21:13:23;5.22;;;4.32;;
68315;SDS011;55508;54.368;18.406;2023-05-19T21:15:50;4.53;;;4.05;;
68315;SDS011;55508;54.368;18.406;2023-05-19T21:18:17;6.03;;;4.47;;
68315;SDS011;55508;54.368;18.406;2023-05-19T21:20:44;5.68;;;4.28;;
68315;SDS011;55508;54.368;18.406;2023-05-19T21:23:11;5.38;;;4.18;;
68315;SDS011;55508;54.368;18.406;2023-05-19T21:25:38;5.68;;;4.25;;
68315;SDS011;55508;54.368;18.406;2023-05-19T21:28:06;3.67;;;3.22;;
68315;SDS011;55508;54.368;18.406;2023-05-19T22:08:01;1.70;;;1.60;;
68315;SDS011;55508;54.368;18.406;2023-05-19T22:10:28;2.83;;;1.75;;
68315;SDS011;55508;54.368;18.406;2023-05-19T22:12:54;3.75;;;1.88;;
68315;SDS011;55508;54.368;18.406;2023-05-19T22:15:22;2.03;;;1.73;;
68315;SDS011;55508;54.368;18.406;2023-05-19T22:17:49;1.70;;;1.45;;
68315;SDS011;55508;54.368;18.406;2023-05-19T22:20:16;2.03;;;1.42;;
68315;SDS011;55508;54.368;18.406;2023-05-19T22:22:46;2.30;;;1.15;;
68315;SDS011;55508;54.368;18.406;2023-05-19T22:25:13;3.55;;;1.33;;
68315;SDS011;55508;54.368;18.406;2023-05-19T22:27:40;1.25;;;1.15;;
68315;SDS011;55508;54.368;18.406;2023-05-19T22:30:07;1.80;;;1.05;;
68315;SDS011;55508;54.368;18.406;2023-05-19T22:32:34;1.80;;;0.88;;
68315;SDS011;55508;54.368;18.406;2023-05-19T22:35:01;2.55;;;0.80;;
68315;SDS011;55508;54.368;18.406;2023-05-19T22:37:29;1.38;;;0.90;;
68315;SDS011;55508;54.368;18.406;2023-05-19T22:39:59;1.17;;;0.80;;
68315;SDS011;55508;54.368;18.406;2023-05-19T22:42:26;4.88;;;1.13;;
68315;SDS011;55508;54.368;18.406;2023-05-19T22:44:54;1.27;;;0.70;;
68315;SDS011;55508;54.368;18.406;2023-05-19T22:47:21;1.75;;;0.77;;
68315;SDS011;55508;54.368;18.406;2023-05-19T22:49:48;1.55;;;0.90;;
68315;SDS011;55508;54.368;18.406;2023-05-19T22:52:15;1.20;;;0.85;;
68315;SDS011;55508;54.368;18.406;2023-05-19T22:54:43;1.67;;;1.00;;
68315;SDS011;55508;54.368;18.406;2023-05-19T22:57:09;0.60;;;0.52;;
68315;SDS011;55508;54.368;18.406;2023-05-19T22:59:37;2.30;;;0.90;;
68315;SDS011;55508;54.368;18.406;2023-05-19T23:02:04;1.92;;;0.85;;
68315;SDS011;55508;54.368;18.406;2023-05-19T23:04:31;2.47;;;0.75;;
68315;SDS011;55508;54.368;18.406;2023-05-19T23:06:59;2.35;;;1.25;;
68315;SDS011;55508;54.368;18.406;2023-05-19T23:09:26;2.13;;;0.73;;
68315;SDS011;55508;54.368;18.406;2023-05-19T23:11:53;1.30;;;0.55;;
68315;SDS011;55508;54.368;18.406;2023-05-19T23:14:20;1.58;;;0.85;;
68315;SDS011;55508;54.368;18.406;2023-05-19T23:16:47;3.30;;;0.90;;
68315;SDS011;55508;54.368;18.406;2023-05-19T23:19:14;1.35;;;0.70;;
68315;SDS011;55508;54.368;18.406;2023-05-19T23:21:42;1.10;;;0.77;;
68315;SDS011;55508;54.368;18.406;2023-05-19T23:24:14;1.00;;;0.70;;
68315;SDS011;55508;54.368;18.406;2023-05-19T23:26:41;3.35;;;0.82;;
68315;SDS011;55508;54.368;18.406;2023-05-19T23:29:11;1.15;;;0.82;;
68315;SDS011;55508;54.368;18.406;2023-05-19T23:31:42;2.75;;;0.80;;
68315;SDS011;55508;54.368;18.406;2023-05-19T23:34:10;1.42;;;0.82;;
68315;SDS011;55508;54.368;18.406;2023-05-19T23:36:36;2.92;;;0.95;;
68315;SDS011;55508;54.368;18.406;2023-05-19T23:39:03;1.00;;;0.80;;
68315;SDS011;55508;54.368;18.406;2023-05-19T23:41:30;1.13;;;0.60;;
68315;SDS011;55508;54.368;18.406;2023-05-19T23:43:57;1.92;;;0.57;;
68315;SDS011;55508;54.368;18.406;2023-05-19T23:46:24;2.03;;;0.90;;
68315;SDS011;55508;54.368;18.406;2023-05-19T23:48:51;1.67;;;1.00;;
68315;SDS011;55508;54.368;18.406;2023-05-19T23:51:18;1.08;;;0.60;;
68315;SDS011;55508;54.368;18.406;2023-05-19T23:53:45;1.60;;;0.63;;
68315;SDS011;55508;54.368;18.406;2023-05-19T23:56:12;0.52;;;0.52;;
68315;SDS011;55508;54.368;18.406;2023-05-19T23:58:40;2.15;;;0.70;;
